sensor_id;sensor_type;location;lat;lon;timestamp;pressure;altitude;pressure_sealevel;temperature;humidity
80139;BME280;69467;59.842;17.604;2023-06-14T00:00:12;101768.19;;;17.80;40.53
80139;BME280;69467;59.842;17.604;2023-06-14T00:02:41;101761.56;;;17.76;39.62
80139;BME280;69467;59.842;17.604;2023-06-14T00:05:07;101763.44;;;17.80;41.51
80139;BME280;69467;59.842;17.604;2023-06-14T00:07:39;101760.19;;;17.68;39.11
80139;BME280;69467;59.842;17.604;2023-06-14T00:10:08;101764.38;;;17.70;39.84
80139;BME280;69467;59.842;17.604;2023-06-14T00:12:34;101762.13;;;17.73;39.86
80139;BME280;69467;59.842;17.604;2023-06-14T00:15:00;101759.66;;;17.66;39.08
80139;BME280;69467;59.842;17.604;2023-06-14T00:17:28;101764.38;;;17.65;39.20
80139;BME280;69467;59.842;17.604;2023-06-14T00:19:56;101759.09;;;17.69;39.40
80139;BME280;69467;59.842;17.604;2023-06-14T00:22:22;101757.16;;;17.69;39.49
80139;BME280;69467;59.842;17.604;2023-06-14T00:24:50;101760.19;;;17.73;39.84
80139;BME280;69467;59.842;17.604;2023-06-14T00:27:16;101749.41;;;17.66;39.08
80139;BME280;69467;59.842;17.604;2023-06-14T00:29:41;101755.81;;;17.57;39.30
80139;BME280;69467;59.842;17.604;2023-06-14T00:32:07;101758.06;;;17.54;39.23
80139;BME280;69467;59.842;17.604;2023-06-14T00:34:32;101751.69;;;17.54;38.95
80139;BME280;69467;59.842;17.604;2023-06-14T00:36:58;101756.13;;;17.55;38.61
80139;BME280;69467;59.842;17.604;2023-06-14T00:39:23;101760.25;;;17.58;38.72
80139;BME280;69467;59.842;17.604;2023-06-14T00:41:49;101762.72;;;17.59;38.86
80139;BME280;69467;59.842;17.604;2023-06-14T00:44:16;101763.00;;;17.63;39.58
80139;BME280;69467;59.842;17.604;2023-06-14T00:46:42;101766.03;;;17.66;39.76
80139;BME280;69467;59.842;17.604;2023-06-14T00:49:08;101769.34;;;17.68;39.33
80139;BME280;69467;59.842;17.604;2023-06-14T00:51:33;101771.53;;;17.71;40.46
80139;BME280;69467;59.842;17.604;2023-06-14T00:53:59;101764.59;;;17.74;41.59
80139;BME280;69467;59.842;17.604;2023-06-14T00:56:24;101767.66;;;17.73;41.34
80139;BME280;69467;59.842;17.604;2023-06-14T00:58:50;101761.81;;;17.74;42.10
80139;BME280;69467;59.842;17.604;2023-06-14T01:01:17;101775.97;;;17.73;41.62
80139;BME280;69467;59.842;17.604;2023-06-14T01:03:42;101771.84;;;17.70;40.90
80139;BME280;69467;59.842;17.604;2023-06-14T01:09:18;101779.59;;;17.68;41.64
80139;BME280;69467;59.842;17.604;2023-06-14T01:12:23;101774.91;;;17.68;41.04
80139;BME280;69467;59.842;17.604;2023-06-14T01:14:51;101777.38;;;17.70;41.33
80139;BME280;69467;59.842;17.604;2023-06-14T01:17:19;101776.25;;;17.71;41.54
80139;BME280;69467;59.842;17.604;2023-06-14T01:19:44;101778.47;;;17.69;40.53
80139;BME280;69467;59.842;17.604;2023-06-14T01:22:10;101784.03;;;17.69;41.61
80139;BME280;69467;59.842;17.604;2023-06-14T01:24:36;101782.34;;;17.68;41.51
80139;BME280;69467;59.842;17.604;2023-06-14T01:27:05;101779.31;;;17.69;41.74
80139;BME280;69467;59.842;17.604;2023-06-14T01:29:31;101777.66;;;17.68;42.18
80139;BME280;69467;59.842;17.604;2023-06-14T01:32:02;101775.75;;;17.64;41.42
80139;BME280;69467;59.842;17.604;2023-06-14T01:34:27;101780.19;;;17.60;41.76
80139;BME280;69467;59.842;17.604;2023-06-14T01:36:53;101768.59;;;17.52;41.30
80139;BME280;69467;59.842;17.604;2023-06-14T01:39:21;101776.09;;;17.52;42.36
80139;BME280;69467;59.842;17.604;2023-06-14T01:41:48;101768.59;;;17.52;42.66
80139;BME280;69467;59.842;17.604;2023-06-14T01:44:15;101773.31;;;17.52;42.18
80139;BME280;69467;59.842;17.604;2023-06-14T01:46:42;101773.56;;;17.50;42.64
80139;BME280;69467;59.842;17.604;2023-06-14T01:49:08;101769.69;;;17.51;43.37
80139;BME280;69467;59.842;17.604;2023-06-14T01:51:33;101764.75;;;17.48;41.88
80139;BME280;69467;59.842;17.604;2023-06-14T01:54:00;101761.69;;;17.50;42.59
80139;BME280;69467;59.842;17.604;2023-06-14T01:56:26;101760.31;;;17.47;43.10
80139;BME280;69467;59.842;17.604;2023-06-14T01:58:52;101766.97;;;17.46;43.01
80139;BME280;69467;59.842;17.604;2023-06-14T02:01:19;101758.66;;;17.46;43.29
80139;BME280;69467;59.842;17.604;2023-06-14T02:03:47;101773.91;;;17.44;43.25
80139;BME280;69467;59.842;17.604;2023-06-14T02:06:13;101775.00;;;17.43;43.82
80139;BME280;69467;59.842;17.604;2023-06-14T02:08:41;101773.34;;;17.42;43.91
80139;BME280;69467;59.842;17.604;2023-06-14T02:11:06;101771.97;;;17.39;43.74
80139;BME280;69467;59.842;17.604;2023-06-14T02:13:32;101769.22;;;17.34;43.82
80139;BME280;69467;59.842;17.604;2023-06-14T02:15:57;101768.66;;;17.32;44.85
80139;BME280;69467;59.842;17.604;2023-06-14T02:18:24;101768.66;;;17.32;44.39
80139;BME280;69467;59.842;17.604;2023-06-14T02:20:50;101772.53;;;17.31;44.47
80139;BME280;69467;59.842;17.604;2023-06-14T02:23:15;101771.16;;;17.28;44.43
80139;BME280;69467;59.842;17.604;2023-06-14T02:25:41;101771.16;;;17.28;44.87
80139;BME280;69467;59.842;17.604;2023-06-14T02:28:08;101770.63;;;17.26;45.29
80139;BME280;69467;59.842;17.604;2023-06-14T02:30:33;101770.91;;;17.25;43.87
80139;BME280;69467;59.842;17.604;2023-06-14T02:32:58;101773.66;;;17.25;44.43
80139;BME280;69467;59.842;17.604;2023-06-14T02:35:24;101767.03;;;17.20;43.98
80139;BME280;69467;59.842;17.604;2023-06-14T02:37:52;101769.25;;;17.18;45.07
80139;BME280;69467;59.842;17.604;2023-06-14T02:40:18;101772.31;;;17.17;45.44
80139;BME280;69467;59.842;17.604;2023-06-14T02:42:44;101772.31;;;17.17;45.07
80139;BME280;69467;59.842;17.604;2023-06-14T02:45:09;101777.56;;;17.18;44.77
80139;BME280;69467;59.842;17.604;2023-06-14T02:47:34;101775.63;;;17.19;45.07
80139;BME280;69467;59.842;17.604;2023-06-14T02:50:00;101782.28;;;17.18;46.21
80139;BME280;69467;59.842;17.604;2023-06-14T02:52:25;101782.00;;;17.19;45.47
80139;BME280;69467;59.842;17.604;2023-06-14T02:54:51;101782.00;;;17.19;45.00
80139;BME280;69467;59.842;17.604;2023-06-14T02:57:16;101784.47;;;17.21;45.65
80139;BME280;69467;59.842;17.604;2023-06-14T02:59:41;101785.31;;;17.21;45.77
80139;BME280;69467;59.842;17.604;2023-06-14T03:02:07;101784.47;;;17.21;45.40
80139;BME280;69467;59.842;17.604;2023-06-14T03:04:32;101789.47;;;17.24;45.55
80139;BME280;69467;59.842;17.604;2023-06-14T03:07:02;101785.00;;;17.28;44.94
80139;BME280;69467;59.842;17.604;2023-06-14T03:09:36;101793.06;;;17.30;45.00
80139;BME280;69467;59.842;17.604;2023-06-14T03:12:03;101792.19;;;17.34;45.30
80139;BME280;69467;59.842;17.604;2023-06-14T03:14:29;101791.09;;;17.35;45.52
80139;BME280;69467;59.842;17.604;2023-06-14T03:16:56;101790.78;;;17.37;46.95
80139;BME280;69467;59.842;17.604;2023-06-14T03:19:22;101788.59;;;17.39;46.25
80139;BME280;69467;59.842;17.604;2023-06-14T03:21:48;101790.25;;;17.40;47.01
80139;BME280;69467;59.842;17.604;2023-06-14T03:24:14;101799.94;;;17.43;46.92
80139;BME280;69467;59.842;17.604;2023-06-14T03:26:41;101790.50;;;17.44;47.05
80139;BME280;69467;59.842;17.604;2023-06-14T03:29:07;101797.16;;;17.43;46.36
80139;BME280;69467;59.842;17.604;2023-06-14T03:31:34;101796.34;;;17.42;47.44
80139;BME280;69467;59.842;17.604;2023-06-14T03:34:00;101795.19;;;17.43;47.54
80139;BME280;69467;59.842;17.604;2023-06-14T03:36:26;101797.97;;;17.43;47.54
80139;BME280;69467;59.842;17.604;2023-06-14T03:38:53;101806.03;;;17.45;47.70
80139;BME280;69467;59.842;17.604;2023-06-14T03:41:18;101797.72;;;17.45;47.17
80139;BME280;69467;59.842;17.604;2023-06-14T03:43:44;101803.53;;;17.48;47.28
80139;BME280;69467;59.842;17.604;2023-06-14T03:46:09;101797.97;;;17.43;47.11
80139;BME280;69467;59.842;17.604;2023-06-14T03:48:34;101806.00;;;17.39;48.37
80139;BME280;69467;59.842;17.604;2023-06-14T03:51:00;101806.59;;;17.36;47.54
80139;BME280;69467;59.842;17.604;2023-06-14T03:53:25;101812.41;;;17.35;48.48
80139;BME280;69467;59.842;17.604;2023-06-14T03:55:53;101805.19;;;17.39;48.57
80139;BME280;69467;59.842;17.604;2023-06-14T03:58:19;101800.22;;;17.41;47.92
80139;BME280;69467;59.842;17.604;2023-06-14T04:00:44;101806.84;;;17.45;48.97
80139;BME280;69467;59.842;17.604;2023-06-14T04:03:10;101806.28;;;17.48;47.61
80139;BME280;69467;59.842;17.604;2023-06-14T04:05:35;101806.56;;;17.52;48.42
80139;BME280;69467;59.842;17.604;2023-06-14T04:08:01;101809.84;;;17.54;48.84
80139;BME280;69467;59.842;17.604;2023-06-14T04:10:26;101811.50;;;17.55;48.42
80139;BME280;69467;59.842;17.604;2023-06-14T04:12:51;101815.38;;;17.59;49.38
80139;BME280;69467;59.842;17.604;2023-06-14T04:15:17;101812.84;;;17.63;47.72
80139;BME280;69467;59.842;17.604;2023-06-14T04:17:43;101813.97;;;17.67;51.17
80139;BME280;69467;59.842;17.604;2023-06-14T04:20:08;101814.75;;;17.73;49.19
80139;BME280;69467;59.842;17.604;2023-06-14T04:22:35;101810.59;;;17.75;51.04
80139;BME280;69467;59.842;17.604;2023-06-14T04:25:01;101811.16;;;17.77;51.00
80139;BME280;69467;59.842;17.604;2023-06-14T04:27:27;101811.13;;;17.82;50.60
80139;BME280;69467;59.842;17.604;2023-06-14T04:29:54;101817.19;;;17.90;50.97
80139;BME280;69467;59.842;17.604;2023-06-14T04:32:28;101812.16;;;18.02;50.35
80139;BME280;69467;59.842;17.604;2023-06-14T04:34:59;101819.66;;;18.01;50.85
80139;BME280;69467;59.842;17.604;2023-06-14T04:37:27;101810.19;;;18.08;51.16
80139;BME280;69467;59.842;17.604;2023-06-14T04:39:54;101816.47;;;18.24;49.73
80139;BME280;69467;59.842;17.604;2023-06-14T04:42:21;101814.81;;;18.23;50.45
80139;BME280;69467;59.842;17.604;2023-06-14T04:44:50;101817.19;;;18.34;49.30
80139;BME280;69467;59.842;17.604;2023-06-14T04:47:17;101814.94;;;18.42;48.97
80139;BME280;69467;59.842;17.604;2023-06-14T04:49:43;101815.69;;;18.53;48.34
80139;BME280;69467;59.842;17.604;2023-06-14T04:52:09;101809.03;;;18.54;48.24
80139;BME280;69467;59.842;17.604;2023-06-14T04:54:38;101814.84;;;18.57;47.67
80139;BME280;69467;59.842;17.604;2023-06-14T04:57:04;101812.91;;;18.87;49.53
80139;BME280;69467;59.842;17.604;2023-06-14T04:59:31;101813.00;;;19.11;47.65
80139;BME280;69467;59.842;17.604;2023-06-14T05:01:59;101810.38;;;19.44;46.34
80139;BME280;69467;59.842;17.604;2023-06-14T05:04:25;101809.34;;;19.65;44.67
80139;BME280;69467;59.842;17.604;2023-06-14T05:06:52;101808.50;;;19.88;44.35
80139;BME280;69467;59.842;17.604;2023-06-14T05:09:20;101802.78;;;19.99;43.59
80139;BME280;69467;59.842;17.604;2023-06-14T05:11:46;101809.63;;;20.06;43.73
80139;BME280;69467;59.842;17.604;2023-06-14T05:14:13;101799.94;;;20.23;42.33
80139;BME280;69467;59.842;17.604;2023-06-14T05:16:39;101805.84;;;20.35;42.97
80139;BME280;69467;59.842;17.604;2023-06-14T05:19:04;101807.56;;;20.50;42.68
80139;BME280;69467;59.842;17.604;2023-06-14T05:21:30;101807.19;;;20.57;42.09
80139;BME280;69467;59.842;17.604;2023-06-14T05:23:57;101808.34;;;20.70;41.64
80139;BME280;69467;59.842;17.604;2023-06-14T05:26:22;101811.22;;;20.84;41.40
80139;BME280;69467;59.842;17.604;2023-06-14T05:28:50;101818.06;;;20.91;41.19
80139;BME280;69467;59.842;17.604;2023-06-14T05:31:17;101816.81;;;20.98;40.38
80139;BME280;69467;59.842;17.604;2023-06-14T05:33:43;101818.06;;;21.05;40.12
80139;BME280;69467;59.842;17.604;2023-06-14T05:36:08;101820.75;;;21.11;39.83
80139;BME280;69467;59.842;17.604;2023-06-14T05:38:33;101826.94;;;21.07;39.74
80139;BME280;69467;59.842;17.604;2023-06-14T05:40:59;101829.47;;;20.90;39.96
80139;BME280;69467;59.842;17.604;2023-06-14T05:43:24;101829.34;;;20.81;40.08
80139;BME280;69467;59.842;17.604;2023-06-14T05:45:49;101824.19;;;20.74;40.30
80139;BME280;69467;59.842;17.604;2023-06-14T05:48:15;101820.88;;;20.72;40.70
80139;BME280;69467;59.842;17.604;2023-06-14T05:50:40;101832.59;;;20.69;40.77
80139;BME280;69467;59.842;17.604;2023-06-14T05:53:05;101828.44;;;20.67;41.05
80139;BME280;69467;59.842;17.604;2023-06-14T05:55:31;101828.44;;;20.67;41.48
80139;BME280;69467;59.842;17.604;2023-06-14T05:57:56;101825.63;;;20.72;41.23
80139;BME280;69467;59.842;17.604;2023-06-14T06:00:22;101826.97;;;20.74;41.05
80139;BME280;69467;59.842;17.604;2023-06-14T06:02:47;101823.56;;;20.78;41.12
80139;BME280;69467;59.842;17.604;2023-06-14T06:05:13;101828.22;;;20.82;41.02
80139;BME280;69467;59.842;17.604;2023-06-14T06:07:38;101820.84;;;20.91;40.88
80139;BME280;69467;59.842;17.604;2023-06-14T06:10:07;101829.72;;;21.07;40.57
80139;BME280;69467;59.842;17.604;2023-06-14T06:12:32;101819.53;;;21.17;40.70
80139;BME280;69467;59.842;17.604;2023-06-14T06:14:58;101824.50;;;21.20;40.34
80139;BME280;69467;59.842;17.604;2023-06-14T06:17:27;101832.75;;;21.25;40.37
80139;BME280;69467;59.842;17.604;2023-06-14T06:19:54;101834.41;;;21.40;40.40
80139;BME280;69467;59.842;17.604;2023-06-14T06:22:19;101827.09;;;21.58;40.12
80139;BME280;69467;59.842;17.604;2023-06-14T06:24:45;101833.50;;;21.73;39.85
80139;BME280;69467;59.842;17.604;2023-06-14T06:27:10;101829.78;;;21.77;39.81
80139;BME280;69467;59.842;17.604;2023-06-14T06:29:38;101831.72;;;21.77;39.08
80139;BME280;69467;59.842;17.604;2023-06-14T06:32:03;101836.69;;;21.80;39.32
80139;BME280;69467;59.842;17.604;2023-06-14T06:34:29;101829.06;;;21.85;39.23
80139;BME280;69467;59.842;17.604;2023-06-14T06:36:54;101840.31;;;21.94;38.98
80139;BME280;69467;59.842;17.604;2023-06-14T06:39:20;101837.59;;;22.03;38.97
80139;BME280;69467;59.842;17.604;2023-06-14T06:41:45;101834.56;;;22.13;38.10
80139;BME280;69467;59.842;17.604;2023-06-14T06:44:10;101834.38;;;22.10;37.49
80139;BME280;69467;59.842;17.604;2023-06-14T06:46:36;101848.19;;;22.15;37.66
80139;BME280;69467;59.842;17.604;2023-06-14T06:49:05;101845.69;;;22.27;38.00
80139;BME280;69467;59.842;17.604;2023-06-14T06:51:31;101846.19;;;22.43;36.68
80139;BME280;69467;59.842;17.604;2023-06-14T06:53:57;101844.53;;;22.65;36.34
80139;BME280;69467;59.842;17.604;2023-06-14T06:56:22;101849.63;;;22.86;34.99
80139;BME280;69467;59.842;17.604;2023-06-14T06:58:51;101847.25;;;23.02;35.29
80139;BME280;69467;59.842;17.604;2023-06-14T07:01:17;101850.50;;;23.18;34.84
80139;BME280;69467;59.842;17.604;2023-06-14T07:03:44;101853.69;;;23.34;34.14
80139;BME280;69467;59.842;17.604;2023-06-14T07:06:09;101853.56;;;23.39;33.67
80139;BME280;69467;59.842;17.604;2023-06-14T07:08:35;101852.44;;;23.48;33.67
80139;BME280;69467;59.842;17.604;2023-06-14T07:11:01;101865.78;;;23.60;33.64
80139;BME280;69467;59.842;17.604;2023-06-14T07:13:27;101859.72;;;23.58;33.41
80139;BME280;69467;59.842;17.604;2023-06-14T07:15:58;101864.03;;;23.64;33.12
80139;BME280;69467;59.842;17.604;2023-06-14T07:18:24;101865.53;;;23.71;33.51
80139;BME280;69467;59.842;17.604;2023-06-14T07:20:49;101863.72;;;23.84;33.22
80139;BME280;69467;59.842;17.604;2023-06-14T07:23:15;101869.84;;;23.86;33.54
80139;BME280;69467;59.842;17.604;2023-06-14T07:25:40;101869.56;;;24.14;33.01
80139;BME280;69467;59.842;17.604;2023-06-14T07:28:06;101864.16;;;24.26;33.12
80139;BME280;69467;59.842;17.604;2023-06-14T07:30:32;101865.63;;;24.41;33.05
80139;BME280;69467;59.842;17.604;2023-06-14T07:32:57;101869.59;;;24.57;32.97
80139;BME280;69467;59.842;17.604;2023-06-14T07:35:23;101871.91;;;24.73;32.72
80139;BME280;69467;59.842;17.604;2023-06-14T07:37:48;101859.69;;;24.86;32.61
80139;BME280;69467;59.842;17.604;2023-06-14T07:40:15;101865.00;;;24.88;32.70
80139;BME280;69467;59.842;17.604;2023-06-14T07:42:40;101859.38;;;24.97;33.81
80139;BME280;69467;59.842;17.604;2023-06-14T07:45:06;101858.00;;;25.12;32.69
80139;BME280;69467;59.842;17.604;2023-06-14T07:47:32;101847.28;;;25.22;32.80
80139;BME280;69467;59.842;17.604;2023-06-14T07:49:58;101845.94;;;25.29;32.94
80139;BME280;69467;59.842;17.604;2023-06-14T07:52:23;101849.34;;;25.34;32.62
80139;BME280;69467;59.842;17.604;2023-06-14T07:54:48;101847.03;;;25.45;32.83
80139;BME280;69467;59.842;17.604;2023-06-14T07:57:14;101848.28;;;25.56;32.41
80139;BME280;69467;59.842;17.604;2023-06-14T07:59:39;101846.75;;;25.68;31.83
80139;BME280;69467;59.842;17.604;2023-06-14T08:02:06;101841.22;;;25.80;32.38
80139;BME280;69467;59.842;17.604;2023-06-14T08:04:32;101840.16;;;25.94;32.28
80139;BME280;69467;59.842;17.604;2023-06-14T08:06:58;101841.59;;;26.00;31.92
80139;BME280;69467;59.842;17.604;2023-06-14T08:09:23;101844.78;;;26.19;30.64
80139;BME280;69467;59.842;17.604;2023-06-14T08:11:50;101847.66;;;26.32;30.31
80139;BME280;69467;59.842;17.604;2023-06-14T08:14:15;101840.59;;;26.47;30.47
80139;BME280;69467;59.842;17.604;2023-06-14T08:16:41;101841.53;;;26.72;29.70
80139;BME280;69467;59.842;17.604;2023-06-14T08:19:07;101843.78;;;26.79;29.44
80139;BME280;69467;59.842;17.604;2023-06-14T08:21:33;101845.44;;;26.59;29.92
80139;BME280;69467;59.842;17.604;2023-06-14T08:23:58;101843.78;;;26.79;28.99
80139;BME280;69467;59.842;17.604;2023-06-14T08:26:24;101850.06;;;26.97;29.24
80139;BME280;69467;59.842;17.604;2023-06-14T08:28:54;101842.94;;;27.12;29.45
80139;BME280;69467;59.842;17.604;2023-06-14T08:31:20;101842.72;;;27.29;28.75
80139;BME280;69467;59.842;17.604;2023-06-14T08:33:45;101843.59;;;27.42;28.78
80139;BME280;69467;59.842;17.604;2023-06-14T08:36:11;101849.91;;;27.52;27.71
80139;BME280;69467;59.842;17.604;2023-06-14T08:38:37;101850.84;;;27.68;27.66
80139;BME280;69467;59.842;17.604;2023-06-14T08:41:04;101854.00;;;27.54;27.68
80139;BME280;69467;59.842;17.604;2023-06-14T08:43:31;101847.69;;;27.57;28.13
80139;BME280;69467;59.842;17.604;2023-06-14T08:46:03;101849.66;;;27.57;27.52
80139;BME280;69467;59.842;17.604;2023-06-14T08:48:31;101852.72;;;27.64;28.04
80139;BME280;69467;59.842;17.604;2023-06-14T08:51:02;101843.91;;;27.78;27.94
80139;BME280;69467;59.842;17.604;2023-06-14T08:53:32;101839.78;;;28.00;28.03
80139;BME280;69467;59.842;17.604;2023-06-14T08:56:02;101839.72;;;28.25;27.91
80139;BME280;69467;59.842;17.604;2023-06-14T08:58:30;101849.31;;;28.49;27.35
80139;BME280;69467;59.842;17.604;2023-06-14T09:00:57;101844.88;;;28.35;27.16
80139;BME280;69467;59.842;17.604;2023-06-14T09:03:23;101838.28;;;28.43;27.18
80139;BME280;69467;59.842;17.604;2023-06-14T09:05:58;101833.31;;;28.53;27.34
80139;BME280;69467;59.842;17.604;2023-06-14T09:08:27;101829.41;;;28.57;26.07
80139;BME280;69467;59.842;17.604;2023-06-14T09:10:56;101834.88;;;28.66;25.59
80139;BME280;69467;59.842;17.604;2023-06-14T09:13:22;101831.56;;;28.76;26.78
80139;BME280;69467;59.842;17.604;2023-06-14T09:15:48;101832.88;;;28.95;26.03
80139;BME280;69467;59.842;17.604;2023-06-14T09:18:13;101830.47;;;28.53;27.21
80139;BME280;69467;59.842;17.604;2023-06-14T09:20:40;101836.94;;;28.53;26.86
80139;BME280;69467;59.842;17.604;2023-06-14T09:23:06;101829.34;;;28.98;26.06
80139;BME280;69467;59.842;17.604;2023-06-14T09:25:41;101837.13;;;28.89;25.30
80139;BME280;69467;59.842;17.604;2023-06-14T09:28:07;101831.78;;;29.00;25.37
80139;BME280;69467;59.842;17.604;2023-06-14T09:30:33;101830.91;;;29.12;26.24
80139;BME280;69467;59.842;17.604;2023-06-14T09:32:59;101833.38;;;29.29;25.81
80139;BME280;69467;59.842;17.604;2023-06-14T09:35:24;101833.00;;;29.47;25.76
80139;BME280;69467;59.842;17.604;2023-06-14T09:37:49;101831.44;;;29.17;25.71
80139;BME280;69467;59.842;17.604;2023-06-14T09:40:20;101829.72;;;28.97;26.31
80139;BME280;69467;59.842;17.604;2023-06-14T09:42:46;101832.56;;;28.68;25.95
80139;BME280;69467;59.842;17.604;2023-06-14T09:45:12;101838.22;;;29.00;25.49
80139;BME280;69467;59.842;17.604;2023-06-14T09:47:39;101841.25;;;29.23;24.73
80139;BME280;69467;59.842;17.604;2023-06-14T09:50:06;101830.47;;;29.42;25.70
80139;BME280;69467;59.842;17.604;2023-06-14T09:52:31;101826.88;;;29.61;24.69
80139;BME280;69467;59.842;17.604;2023-06-14T09:54:59;101826.91;;;29.96;24.32
80139;BME280;69467;59.842;17.604;2023-06-14T09:57:25;101825.16;;;30.27;23.90
80139;BME280;69467;59.842;17.604;2023-06-14T09:59:58;101831.56;;;30.44;23.58
80139;BME280;69467;59.842;17.604;2023-06-14T10:02:34;101828.03;;;30.31;24.07
80139;BME280;69467;59.842;17.604;2023-06-14T10:05:07;101829.72;;;30.51;23.27
80139;BME280;69467;59.842;17.604;2023-06-14T10:07:42;101823.19;;;30.71;24.05
80139;BME280;69467;59.842;17.604;2023-06-14T10:10:10;101823.50;;;30.65;23.94
80139;BME280;69467;59.842;17.604;2023-06-14T10:12:36;101826.91;;;29.96;23.72
80139;BME280;69467;59.842;17.604;2023-06-14T10:15:02;101835.31;;;29.77;24.49
80139;BME280;69467;59.842;17.604;2023-06-14T10:17:41;101819.44;;;29.88;24.34
80139;BME280;69467;59.842;17.604;2023-06-14T10:20:51;101819.31;;;29.65;24.40
80139;BME280;69467;59.842;17.604;2023-06-14T10:23:18;101823.44;;;29.35;25.44
80139;BME280;69467;59.842;17.604;2023-06-14T10:25:49;101816.59;;;29.20;25.06
80139;BME280;69467;59.842;17.604;2023-06-14T10:28:17;101821.78;;;29.66;25.91
80139;BME280;69467;59.842;17.604;2023-06-14T10:31:09;101812.50;;;30.01;25.22
80139;BME280;69467;59.842;17.604;2023-06-14T10:33:56;101815.13;;;30.10;23.86
80139;BME280;69467;59.842;17.604;2023-06-14T10:39:12;101802.53;;;30.08;23.86
80139;BME280;69467;59.842;17.604;2023-06-14T10:41:40;101814.97;;;30.23;24.77
80139;BME280;69467;59.842;17.604;2023-06-14T10:46:38;101797.06;;;29.44;24.99
80139;BME280;69467;59.842;17.604;2023-06-14T10:49:03;101809.41;;;29.55;25.58
80139;BME280;69467;59.842;17.604;2023-06-14T10:51:29;101803.44;;;29.76;24.90
80139;BME280;69467;59.842;17.604;2023-06-14T10:53:57;101793.00;;;29.96;24.04
80139;BME280;69467;59.842;17.604;2023-06-14T10:56:28;101813.59;;;29.61;25.34
80139;BME280;69467;59.842;17.604;2023-06-14T10:58:57;101810.88;;;29.17;25.71
80139;BME280;69467;59.842;17.604;2023-06-14T11:01:36;101811.06;;;29.24;24.58
80139;BME280;69467;59.842;17.604;2023-06-14T11:04:09;101801.66;;;29.20;25.77
80139;BME280;69467;59.842;17.604;2023-06-14T11:09:53;101792.41;;;29.19;25.98
80139;BME280;69467;59.842;17.604;2023-06-14T11:12:17;101795.94;;;29.16;25.89
80139;BME280;69467;59.842;17.604;2023-06-14T11:14:46;101790.66;;;29.15;25.59
80139;BME280;69467;59.842;17.604;2023-06-14T11:17:12;101798.03;;;29.19;26.35
80139;BME280;69467;59.842;17.604;2023-06-14T11:19:37;101792.34;;;29.67;25.25
80139;BME280;69467;59.842;17.604;2023-06-14T11:22:03;101791.03;;;29.97;24.71
80139;BME280;69467;59.842;17.604;2023-06-14T11:24:28;101780.84;;;29.92;24.44
80139;BME280;69467;59.842;17.604;2023-06-14T11:26:55;101780.63;;;30.20;24.51
80139;BME280;69467;59.842;17.604;2023-06-14T11:29:21;101783.22;;;30.49;24.39
80139;BME280;69467;59.842;17.604;2023-06-14T11:31:47;101791.47;;;30.58;24.24
80139;BME280;69467;59.842;17.604;2023-06-14T11:34:12;101790.50;;;30.50;24.18
80139;BME280;69467;59.842;17.604;2023-06-14T11:36:39;101795.03;;;30.35;24.32
80139;BME280;69467;59.842;17.604;2023-06-14T11:39:06;101783.06;;;30.22;24.17
80139;BME280;69467;59.842;17.604;2023-06-14T11:41:42;101786.34;;;30.04;23.67
80139;BME280;69467;59.842;17.604;2023-06-14T11:44:08;101788.47;;;29.92;24.30
80139;BME280;69467;59.842;17.604;2023-06-14T11:46:34;101773.44;;;29.87;23.84
80139;BME280;69467;59.842;17.604;2023-06-14T11:49:00;101777.09;;;29.88;24.50
80139;BME280;69467;59.842;17.604;2023-06-14T11:51:32;101783.94;;;30.26;23.97
80139;BME280;69467;59.842;17.604;2023-06-14T11:53:57;101773.84;;;30.45;24.07
80139;BME280;69467;59.842;17.604;2023-06-14T11:56:24;101764.03;;;30.19;24.05
80139;BME280;69467;59.842;17.604;2023-06-14T11:58:50;101769.53;;;30.12;24.18
80139;BME280;69467;59.842;17.604;2023-06-14T12:01:17;101770.72;;;29.91;24.84
80139;BME280;69467;59.842;17.604;2023-06-14T12:03:49;101772.09;;;29.81;25.22
80139;BME280;69467;59.842;17.604;2023-06-14T12:06:15;101771.69;;;29.63;25.76
80139;BME280;69467;59.842;17.604;2023-06-14T12:08:43;101771.88;;;29.54;25.94
80139;BME280;69467;59.842;17.604;2023-06-14T12:11:12;101765.91;;;29.56;24.90
80139;BME280;69467;59.842;17.604;2023-06-14T12:13:39;101772.91;;;29.46;25.78
80139;BME280;69467;59.842;17.604;2023-06-14T12:16:09;101767.31;;;29.30;25.19
80139;BME280;69467;59.842;17.604;2023-06-14T12:18:36;101765.81;;;29.20;25.67
80139;BME280;69467;59.842;17.604;2023-06-14T12:21:08;101767.47;;;29.21;25.95
80139;BME280;69467;59.842;17.604;2023-06-14T12:23:46;101764.28;;;29.07;25.86
80139;BME280;69467;59.842;17.604;2023-06-14T12:26:19;101768.19;;;29.02;25.67
80139;BME280;69467;59.842;17.604;2023-06-14T12:28:45;101766.66;;;29.05;25.62
80139;BME280;69467;59.842;17.604;2023-06-14T12:31:13;101759.63;;;29.15;25.55
80139;BME280;69467;59.842;17.604;2023-06-14T12:33:39;101760.19;;;29.72;25.04
80139;BME280;69467;59.842;17.604;2023-06-14T12:36:07;101758.00;;;30.01;26.10
80139;BME280;69467;59.842;17.604;2023-06-14T12:38:33;101756.97;;;30.29;24.76
80139;BME280;69467;59.842;17.604;2023-06-14T12:40:59;101756.91;;;30.25;24.41
80139;BME280;69467;59.842;17.604;2023-06-14T12:43:24;101750.00;;;30.46;24.82
80139;BME280;69467;59.842;17.604;2023-06-14T12:45:50;101755.56;;;30.39;24.46
80139;BME280;69467;59.842;17.604;2023-06-14T12:48:15;101755.13;;;30.17;24.64
80139;BME280;69467;59.842;17.604;2023-06-14T12:50:41;101759.72;;;30.06;24.71